createdAt,value
2018-04-19T00:01:03.995Z,102621.97
2018-04-19T00:06:06.029Z,102626.24
2018-04-19T00:11:07.339Z,102623.73
2018-04-19T00:16:08.681Z,102619.92
2018-04-19T00:21:10.711Z,102618.23
2018-04-19T00:26:12.030Z,102608.80
2018-04-19T00:31:13.350Z,102609.50
2018-04-19T00:36:15.394Z,102604.26
2018-04-19T00:41:16.709Z,102600.18
2018-04-19T00:46:18.022Z,102599.87
2018-04-19T00:51:19.324Z,102594.33
2018-04-19T00:56:21.371Z,102591.89
2018-04-19T01:01:22.668Z,102591.81
2018-04-19T01:06:23.975Z,102580.98
2018-04-19T01:11:25.285Z,102580.14
2018-04-19T01:16:26.582Z,102581.27
2018-04-19T01:21:28.662Z,102578.10
2018-04-19T01:26:29.986Z,102571.70
2018-04-19T01:31:32.071Z,102569.77
2018-04-19T01:36:33.373Z,102572.09
2018-04-19T01:41:35.417Z,102572.77
2018-04-19T01:46:36.762Z,102572.05
2018-04-19T01:51:38.058Z,102565.94
2018-04-19T01:56:39.374Z,102563.40
2018-04-19T02:01:40.678Z,102565.08
2018-04-19T02:06:41.981Z,102560.52
2018-04-19T02:11:43.269Z,102554.92
2018-04-19T02:16:44.603Z,102553.36
2018-04-19T02:21:46.638Z,102543.05
2018-04-19T02:26:47.944Z,102555.33
2018-04-19T02:31:49.246Z,102545.08
2018-04-19T02:36:50.553Z,102532.41
2018-04-19T02:41:51.854Z,102529.55
2018-04-19T02:46:53.930Z,102520.44
2018-04-19T02:51:55.275Z,102528.86
2018-04-19T02:56:57.359Z,102525.34
2018-04-19T03:01:58.670Z,102524.94
2018-04-19T03:07:00.782Z,102526.32
2018-04-19T03:12:02.890Z,102528.71
2018-04-19T03:17:04.939Z,102527.88
2018-04-19T03:22:06.263Z,102525.45
2018-04-19T03:27:07.554Z,102529.80
2018-04-19T03:32:08.882Z,102523.39
2018-04-19T03:37:10.208Z,102522.58
2018-04-19T03:42:11.514Z,102522.17
2018-04-19T03:47:12.807Z,102525.01
2018-04-19T03:52:14.165Z,102525.55
2018-04-19T03:57:15.470Z,102522.41
2018-04-19T04:02:16.771Z,102524.55
2018-04-19T04:07:18.070Z,102530.47
2018-04-19T04:12:20.131Z,102525.36
2018-04-19T04:17:39.971Z,102526.67
2018-04-19T04:22:59.835Z,102525.55
2018-04-19T04:28:02.740Z,102538.87
2018-04-19T04:33:04.065Z,102531.81
2018-04-19T04:38:05.366Z,102537.71
2018-04-19T04:43:06.686Z,102537.52
2018-04-19T04:48:08.011Z,102547.74
2018-04-19T04:53:10.071Z,102545.67
2018-04-19T04:58:11.395Z,102544.66
2018-04-19T05:03:12.695Z,102544.39
2018-04-19T05:08:14.786Z,102550.33
2018-04-19T05:13:16.109Z,102547.03
2018-04-19T05:18:18.183Z,102545.10
2018-04-19T05:23:19.506Z,102551.30
2018-04-19T05:28:26.922Z,102543.91
2018-04-19T05:33:28.270Z,102538.58
2018-04-19T05:38:29.568Z,102545.36
2018-04-19T05:43:30.907Z,102533.16
2018-04-19T05:48:32.252Z,102537.19
2018-04-19T05:53:33.612Z,102540.16
2018-04-19T05:58:34.944Z,102537.47
2018-04-19T06:03:36.267Z,102539.56
2018-04-19T06:08:37.644Z,102547.78
2018-04-19T06:13:38.925Z,102545.17
2018-04-19T06:18:40.981Z,102553.05
2018-04-19T06:23:42.329Z,102550.81
2018-04-19T06:28:44.410Z,102547.23
2018-04-19T06:33:45.733Z,102540.68
2018-04-19T06:38:54.655Z,102543.28
2018-04-19T06:43:55.986Z,102544.19
2018-04-19T06:48:58.030Z,102542.21
2018-04-19T06:53:59.350Z,102535.53
2018-04-19T06:59:00.650Z,102538.95
2018-04-19T07:04:01.983Z,102548.48
2018-04-19T07:09:06.246Z,102544.60
2018-04-19T07:14:07.558Z,102540.00
2018-04-19T07:19:08.870Z,102538.63
2018-04-19T07:24:10.208Z,102534.42
2018-04-19T07:29:11.502Z,102533.38
2018-04-19T07:34:12.839Z,102538.02
2018-04-19T07:39:14.200Z,102539.07
2018-04-19T07:44:15.516Z,102542.51
2018-04-19T07:49:16.834Z,102527.50
2018-04-19T07:54:18.893Z,102527.58
2018-04-19T07:59:20.210Z,102534.73
2018-04-19T08:04:21.536Z,102535.31
2018-04-19T08:09:22.847Z,102533.70
2018-04-19T08:14:24.174Z,102533.62
2018-04-19T08:19:25.486Z,102535.59
2018-04-19T08:24:27.513Z,102538.09
2018-04-19T08:29:28.863Z,102542.97
2018-04-19T08:34:30.182Z,102541.70
2018-04-19T08:39:31.514Z,102534.42
2018-04-19T08:44:32.890Z,102538.28
2018-04-19T08:49:34.174Z,102545.13
2018-04-19T08:54:35.498Z,102542.39
2018-04-19T08:59:36.801Z,102510.18
2018-04-19T09:04:38.112Z,102538.50
2018-04-19T09:09:39.426Z,102530.77
2018-04-19T09:14:40.729Z,102534.39
2018-04-19T09:19:42.046Z,102545.30
2018-04-19T09:24:43.367Z,102535.92
2018-04-19T09:29:44.697Z,102538.69
2018-04-19T09:34:46.027Z,102536.69
2018-04-19T09:39:48.087Z,102531.81
2018-04-19T09:44:49.410Z,102536.52
2018-04-19T09:49:50.731Z,102531.61
2018-04-19T09:54:52.039Z,102528.69
2018-04-19T09:59:53.333Z,102525.18
2018-04-19T10:04:54.694Z,102512.25
2018-04-19T10:09:55.998Z,102511.30
2018-04-19T10:14:57.303Z,102510.18
2018-04-19T10:19:58.616Z,102507.33
2018-04-19T10:24:59.957Z,102506.79
2018-04-19T10:30:01.277Z,102496.63
2018-04-19T10:35:02.639Z,102491.83
2018-04-19T10:40:03.987Z,102486.93
2018-04-19T10:45:05.333Z,102480.38
2018-04-19T10:50:06.642Z,102483.05
2018-04-19T10:55:07.955Z,102473.78
2018-04-19T11:00:09.282Z,102473.40
2018-04-19T11:05:10.620Z,102469.26
2018-04-19T11:10:11.993Z,102464.46
2018-04-19T11:15:13.323Z,102458.27
2018-04-19T11:20:14.675Z,102460.64
2018-04-19T11:25:15.999Z,102456.02
2018-04-19T11:30:17.351Z,102456.58
2018-04-19T11:35:18.670Z,102451.63
2018-04-19T11:40:20.001Z,102445.20
2018-04-19T11:45:21.301Z,102440.45
2018-04-19T11:50:22.641Z,102438.67
2018-04-19T11:55:23.982Z,102416.70
2018-04-19T12:00:25.319Z,102437.75
2018-04-19T12:05:26.842Z,102433.27
2018-04-19T12:10:28.160Z,102423.92
2018-04-19T12:15:29.519Z,102419.89
2018-04-19T12:20:31.605Z,102419.02
2018-04-19T12:25:33.092Z,102412.25
2018-04-19T12:30:34.419Z,102402.91
2018-04-19T12:35:35.751Z,102406.52
2018-04-19T12:40:37.066Z,102401.12
2018-04-19T12:45:38.403Z,102399.52
2018-04-19T12:50:39.712Z,102401.69
2018-04-19T12:55:41.011Z,102389.39
2018-04-19T13:00:42.356Z,102388.64
2018-04-19T13:05:43.658Z,102383.21
2018-04-19T13:10:44.987Z,102374.44
2018-04-19T13:15:46.318Z,102370.71
2018-04-19T13:20:47.625Z,102379.34
2018-04-19T13:25:48.969Z,102365.80
2018-04-19T13:30:51.019Z,102360.83
2018-04-19T13:35:52.333Z,102351.14
2018-04-19T13:40:53.762Z,102352.45
2018-04-19T13:45:55.844Z,102338.74
2018-04-19T13:50:57.166Z,102339.72
2018-04-19T13:55:59.224Z,102319.08
2018-04-19T14:01:00.598Z,102324.66
2018-04-19T14:06:01.946Z,102319.34
2018-04-19T14:11:03.309Z,102318.41
2018-04-19T14:16:04.637Z,102307.84
2018-04-19T14:21:06.782Z,102307.63
2018-04-19T14:26:08.110Z,102298.64
2018-04-19T14:31:09.551Z,102295.52
2018-04-19T14:36:10.879Z,102297.64
2018-04-19T14:41:12.187Z,102295.38
2018-04-19T14:46:13.501Z,102287.00
2018-04-19T14:51:15.593Z,102285.05
2018-04-19T14:56:16.910Z,102280.08
2018-04-19T15:01:18.232Z,102279.80
2018-04-19T15:06:19.556Z,102273.37
2018-04-19T15:11:21.695Z,102263.03
2018-04-19T15:16:23.227Z,102261.38
2018-04-19T15:21:24.773Z,102259.30
2018-04-19T15:26:26.374Z,102259.20
2018-04-19T15:31:27.914Z,102254.03
2018-04-19T15:36:29.259Z,102256.56
2018-04-19T15:41:30.650Z,102249.84
2018-04-19T15:46:31.962Z,102245.02
2018-04-19T15:51:33.274Z,102248.30
2018-04-19T15:56:34.608Z,102242.31
2018-04-19T16:01:35.945Z,102243.51
2018-04-19T16:06:37.286Z,102247.88
2018-04-19T16:11:38.608Z,102233.85
2018-04-19T16:16:39.943Z,102245.31
2018-04-19T16:21:41.283Z,102237.70
2018-04-19T16:26:42.627Z,102232.69
2018-04-19T16:31:43.962Z,102228.72
2018-04-19T16:36:45.291Z,102224.20
2018-04-19T16:41:46.639Z,102226.47
2018-04-19T16:46:47.959Z,102220.45
2018-04-19T16:51:49.294Z,102221.58
2018-04-19T16:56:51.351Z,102222.98
2018-04-19T17:01:52.715Z,102211.20
2018-04-19T17:06:54.047Z,102213.78
2018-04-19T17:11:55.515Z,102212.30
2018-04-19T17:16:56.878Z,102205.17
2018-04-19T17:21:58.211Z,102210.44
2018-04-19T17:26:59.517Z,102212.04
2018-04-19T17:32:00.846Z,102209.46
2018-04-19T17:37:02.198Z,102208.56
2018-04-19T17:42:03.527Z,102204.97
2018-04-19T17:47:04.896Z,102203.31
2018-04-19T17:52:06.963Z,102195.41
2018-04-19T17:57:08.304Z,102194.84
2018-04-19T18:02:10.884Z,102193.72
2018-04-19T18:07:12.195Z,102191.55
2018-04-19T18:12:15.820Z,102192.45
2018-04-19T18:17:17.944Z,102191.83
2018-04-19T18:22:19.319Z,102193.31
2018-04-19T18:27:21.572Z,102196.27
2018-04-19T18:32:22.950Z,102192.54
2018-04-19T18:37:25.037Z,102185.72
2018-04-19T18:42:26.367Z,102186.05
2018-04-19T18:47:28.350Z,102197.64
2018-04-19T18:52:30.426Z,102195.40
2018-04-19T18:57:31.755Z,102192.83
2018-04-19T19:02:33.134Z,102185.09
2018-04-19T19:07:35.646Z,102188.37
2018-04-19T19:12:43.986Z,102185.30
2018-04-19T19:18:03.758Z,102190.00
2018-04-19T19:23:05.083Z,102181.84
2018-04-19T19:28:06.423Z,102192.15
2018-04-19T19:33:07.745Z,102192.72
2018-04-19T19:38:09.054Z,102196.93
2018-04-19T19:43:10.451Z,102197.09
2018-04-19T19:48:12.559Z,102193.68
2018-04-19T19:53:13.927Z,102198.28
2018-04-19T19:58:15.282Z,102197.61
2018-04-19T20:03:16.601Z,102201.73
2018-04-19T20:08:17.925Z,102203.22
2018-04-19T20:13:19.246Z,102204.06
2018-04-19T20:18:20.557Z,102194.47
2018-04-19T20:23:21.886Z,102195.94
2018-04-19T20:28:23.203Z,102195.13
2018-04-19T20:33:25.241Z,102188.08
2018-04-19T20:38:26.555Z,102186.20
2018-04-19T20:43:27.867Z,102180.41
2018-04-19T20:48:29.162Z,102175.50
2018-04-19T20:53:30.496Z,102168.87
2018-04-19T20:58:31.797Z,102165.50
2018-04-19T21:03:33.122Z,102162.70
2018-04-19T21:08:34.430Z,102155.73
2018-04-19T21:13:36.506Z,102156.67
2018-04-19T21:18:37.826Z,102154.58
2018-04-19T21:23:39.134Z,102147.31
2018-04-19T21:28:40.445Z,102143.40
2018-04-19T21:33:41.767Z,102141.59
2018-04-19T21:38:43.063Z,102142.09
2018-04-19T21:43:44.362Z,102140.85
2018-04-19T21:48:46.407Z,102135.79
2018-04-19T21:53:47.744Z,102136.03
2018-04-19T21:58:49.090Z,102132.41
2018-04-19T22:03:50.395Z,102131.52
2018-04-19T22:08:51.787Z,102119.55
2018-04-19T22:13:53.095Z,102120.23
2018-04-19T22:18:54.390Z,102121.90
2018-04-19T22:23:58.648Z,102120.98
2018-04-19T22:28:59.963Z,102124.83
2018-04-19T22:34:02.032Z,102121.77
2018-04-19T22:39:03.393Z,102119.20
2018-04-19T22:44:04.686Z,102112.95
2018-04-19T22:49:06.003Z,102111.84
2018-04-19T22:54:07.310Z,102106.45
2018-04-19T22:59:08.631Z,102102.88
2018-04-19T23:04:09.935Z,102108.06
2018-04-19T23:09:11.250Z,102102.31
2018-04-19T23:14:12.759Z,102094.63
2018-04-19T23:19:14.065Z,102097.75
2018-04-19T23:24:16.122Z,102093.72
2018-04-19T23:29:17.436Z,102087.66
2018-04-19T23:34:18.817Z,102088.23
2018-04-19T23:39:20.095Z,102088.28
2018-04-19T23:44:21.419Z,102087.18
2018-04-19T23:49:22.737Z,102083.72
2018-04-19T23:54:24.047Z,102074.84
2018-04-19T23:59:25.379Z,102071.38
